Ulan-Ude, Russia
Current Conditions -  °F | °C
As of 9:00 AM on Saturday 29 Nov 2014 (Local Time) from UIUU Reporting Station
Overcast Overcast  
Wind Chill: -22°   Ceiling: 10000
Heat Index: -8°   Visibility: 6mi
Dew Point: -13°   Wind: 7mph
Humidity: 77%   Direction: 40°NE
Pressure: 30.12"   Gusts: NA
Location:  51.83°N, 107.62°E
Report Text: UIUU 290100Z 04003MPS 9999 FEW040 OVC100 M22/M25 Q1020 NOSIGRMK QFE721/0961 26410560
Loading
Personal Weather Stations






























Interactive Weather Map New forecast layout! Learn more

10-Day Weather Forecast

Advertisements
Track Severe Weather on mobile